Time;durP1;ratioP1;P1;durP2;ratioP2;P2;SDS_P1;SDS_P2;PMS_P1;PMS_P2;Temp;Humidity;BMP_temperature;BMP_pressure;BME280_temperature;BME280_humidity;BME280_pressure;Samples;Min_cycle;Max_cycle;Signal;HPM_P1;HPM_P2
2023/05/10 00:00:09;;;;;;;;;;;;;;;12.93;100.00;100915.75;5164874;28;20016;-79
2023/05/10 00:02:40;;;;;;;;;;;;;;;12.96;100.00;100926.19;5163063;28;19921;-78
2023/05/10 00:05:10;;;;;;;;;;;;;;;12.96;100.00;100917.28;5163536;28;19914;-78
2023/05/10 00:07:44;;;;;;;;;;;;;;;13.00;100.00;100920.41;5163895;28;19914;-78
2023/05/10 00:10:14;;;;;;;;;;;;;;;13.02;100.00;100921.09;5164683;28;19939;-78
2023/05/10 00:12:45;;;;;;;;;;;;;;;13.08;100.00;100921.19;5164399;28;19914;-78
2023/05/10 00:15:15;;;;;;;;;;;;;;;13.08;100.00;100915.81;5164724;28;19914;-78
2023/05/10 00:17:45;;;;;;;;;;;;;;;13.11;100.00;100915.47;5163793;28;19921;-78
2023/05/10 00:20:16;;;;;;;;;;;;;;;13.16;100.00;100914.94;5164015;28;20386;-78
2023/05/10 00:22:46;;;;;;;;;;;;;;;13.16;100.00;100912.22;5164361;28;19914;-78
2023/05/10 00:25:17;;;;;;;;;;;;;;;13.14;100.00;100912.41;5163415;28;20314;-78
2023/05/10 00:27:47;;;;;;;;;;;;;;;13.10;100.00;100911.09;5164194;28;20404;-77
2023/05/10 00:30:18;;;;;;;;;;;;;;;13.09;100.00;100908.56;5164381;28;19917;-76
2023/05/10 00:32:49;;;;;;;;;;;;;;;13.05;100.00;100908.13;5165401;28;19968;-78
2023/05/10 00:35:21;;;;;;;;;;;;;;;13.04;100.00;100909.13;5165372;28;19918;-78
2023/05/10 00:37:51;;;;;;;;;;;;;;;13.03;100.00;100920.06;5150868;28;19920;-77
2023/05/10 00:40:22;;;;;;;;;;;;;;;13.05;100.00;100918.88;5164017;28;19917;-77
2023/05/10 00:42:52;;;;;;;;;;;;;;;13.05;100.00;100909.94;5162849;28;20411;-80
2023/05/10 00:45:23;;;;;;;;;;;;;;;13.05;100.00;100908.13;5165619;28;19922;-77
2023/05/10 00:47:54;;;;;;;;;;;;;;;13.02;100.00;100911.16;5165296;28;19912;-77
2023/05/10 00:50:25;;;;;;;;;;;;;;;13.00;100.00;100913.19;5163853;28;20000;-78
2023/05/10 00:52:57;;;;;;;;;;;;;;;13.03;100.00;100915.53;5164063;28;20004;-77
2023/05/10 00:55:27;;;;;;;;;;;;;;;13.00;100.00;100907.78;5162967;28;19921;-77
2023/05/10 00:57:58;;;;;;;;;;;;;;;12.93;100.00;100904.16;5162091;28;19918;-77
2023/05/10 01:00:29;;;;;;;;;;;;;;;12.93;100.00;100904.16;5163924;28;19920;-78
2023/05/10 01:03:00;;;;;;;;;;;;;;;12.89;100.00;100908.22;5164344;28;20346;-77
2023/05/10 01:05:31;;;;;;;;;;;;;;;12.87;100.00;100902.19;5164189;28;19914;-79
2023/05/10 01:08:02;;;;;;;;;;;;;;;12.85;100.00;100904.22;5162837;28;20411;-78
2023/05/10 01:10:33;;;;;;;;;;;;;;;12.89;100.00;100905.53;5162495;28;19972;-76
2023/05/10 01:13:03;;;;;;;;;;;;;;;12.87;100.00;100907.56;5162784;28;19918;-78
2023/05/10 01:15:34;;;;;;;;;;;;;;;12.89;100.00;100903.66;5163132;28;20379;-77
2023/05/10 01:18:05;;;;;;;;;;;;;;;12.85;100.00;100907.75;5161263;28;19929;-77
2023/05/10 01:20:40;;;;;;;;;;;;;;;12.80;100.00;100911.97;5163302;28;19921;-77
2023/05/10 01:23:29;;;;;;;;;;;;;;;12.81;100.00;100908.31;5163294;28;19913;-77
2023/05/10 01:26:32;;;;;;;;;;;;;;;12.80;100.00;100911.97;5163129;28;20005;-77
2023/05/10 01:29:18;;;;;;;;;;;;;;;12.78;100.00;100904.09;5163221;28;19914;-77
2023/05/10 01:32:08;;;;;;;;;;;;;;;12.80;100.00;100904.78;5162121;28;19926;-77
2023/05/10 01:34:42;;;;;;;;;;;;;;;12.80;100.00;100904.78;5149795;28;19921;-77
2023/05/10 01:37:18;;;;;;;;;;;;;;;12.78;100.00;100900.56;5161499;28;20005;-77
2023/05/10 01:39:54;;;;;;;;;;;;;;;12.64;100.00;100903.00;5161691;28;19917;-77
2023/05/10 01:42:28;;;;;;;;;;;;;;;12.67;100.00;100908.03;5161531;28;19914;-78
2023/05/10 01:45:06;;;;;;;;;;;;;;;12.69;100.00;100908.69;5163206;28;19949;-77
2023/05/10 01:47:39;;;;;;;;;;;;;;;12.65;100.00;100899.31;5162573;28;20334;-78
2023/05/10 01:50:14;;;;;;;;;;;;;;;12.64;100.00;100905.69;5162884;28;19914;-77
2023/05/10 01:53:04;;;;;;;;;;;;;;;12.69;100.00;100908.69;5163392;28;19925;-78
2023/05/10 01:55:39;;;;;;;;;;;;;;;12.72;100.00;100912.06;5163010;28;19914;-77
2023/05/10 01:58:13;;;;;;;;;;;;;;;12.69;100.00;100914.06;5161949;28;20431;-79
2023/05/10 02:00:44;;;;;;;;;;;;;;;12.68;100.00;100919.66;5162767;28;19914;-76
2023/05/10 02:03:16;;;;;;;;;;;;;;;12.69;100.00;100911.38;5163428;28;20005;-77
2023/05/10 02:05:48;;;;;;;;;;;;;;;12.68;100.00;100917.78;5161638;28;19913;-76
2023/05/10 02:08:20;;;;;;;;;;;;;;;12.69;100.00;100924.84;5162259;28;19918;-78
2023/05/10 02:10:52;;;;;;;;;;;;;;;12.69;100.00;100924.00;5162513;28;20386;-79
2023/05/10 02:13:23;;;;;;;;;;;;;;;12.66;100.00;100921.69;5162750;28;19914;-77
2023/05/10 02:15:55;;;;;;;;;;;;;;;12.64;100.00;100929.09;5162769;28;19953;-77
2023/05/10 02:18:27;;;;;;;;;;;;;;;12.62;100.00;100928.44;5162218;28;19988;-76
2023/05/10 02:20:58;;;;;;;;;;;;;;;12.62;100.00;100920.38;5162479;28;19925;-78
2023/05/10 02:23:30;;;;;;;;;;;;;;;12.58;100.00;100927.94;5162751;28;19929;-78
2023/05/10 02:26:02;;;;;;;;;;;;;;;12.59;100.00;100936.84;5165137;28;19914;-76
2023/05/10 02:28:33;;;;;;;;;;;;;;;12.65;100.00;100944.22;5166702;28;19914;-77
2023/05/10 02:31:05;;;;;;;;;;;;;;;12.63;100.00;100943.56;5166660;28;20011;-78
2023/05/10 02:33:36;;;;;;;;;;;;;;;12.65;100.00;100941.53;5166400;28;19918;-77
2023/05/10 02:36:08;;;;;;;;;;;;;;;12.66;100.00;100946.75;5160347;28;20199;-77
2023/05/10 02:38:40;;;;;;;;;;;;;;;12.63;100.00;100949.78;5159766;28;20338;-77
2023/05/10 02:41:11;;;;;;;;;;;;;;;12.65;100.00;100953.16;5166021;28;19921;-77
2023/05/10 02:43:41;;;;;;;;;;;;;;;12.66;100.00;100960.22;5165025;28;19914;-79
2023/05/10 02:46:12;;;;;;;;;;;;;;;12.64;100.00;100964.06;5166206;28;19918;-77
2023/05/10 02:48:42;;;;;;;;;;;;;;;12.68;100.00;100963.56;5166254;28;20056;-77
2023/05/10 02:51:17;;;;;;;;;;;;;;;12.68;100.00;100960.03;5166282;28;20307;-77
2023/05/10 02:53:49;;;;;;;;;;;;;;;12.68;100.00;100957.31;5166317;28;20368;-77
2023/05/10 02:56:23;;;;;;;;;;;;;;;12.69;100.00;100962.53;5166149;28;20014;-77
2023/05/10 02:58:53;;;;;;;;;;;;;;;12.69;100.00;100959.84;5166440;28;20276;-77
2023/05/10 03:01:24;;;;;;;;;;;;;;;12.69;100.00;100965.22;5165949;28;19921;-77
2023/05/10 03:03:54;;;;;;;;;;;;;;;12.69;100.00;100957.16;5166639;28;20048;-77
2023/05/10 03:06:25;;;;;;;;;;;;;;;12.75;100.00;100960.13;5165655;28;19921;-77
2023/05/10 03:08:56;;;;;;;;;;;;;;;12.74;100.00;100961.16;5166701;28;20290;-77
2023/05/10 03:11:43;;;;;;;;;;;;;;;12.80;100.00;100957.75;5165573;28;20012;-77
2023/05/10 03:14:32;;;;;;;;;;;;;;;12.77;100.00;100961.66;5166454;28;19956;-77
2023/05/10 03:17:19;;;;;;;;;;;;;;;12.79;100.00;100961.47;5165938;28;19918;-77
2023/05/10 03:20:05;;;;;;;;;;;;;;;12.76;100.00;100954.59;5165461;28;20343;-77
2023/05/10 03:22:52;;;;;;;;;;;;;;;12.75;100.00;100961.00;5164477;28;20010;-77
2023/05/10 03:25:23;;;;;;;;;;;;;;;12.74;100.00;100961.16;5166203;28;20236;-77
2023/05/10 03:27:54;;;;;;;;;;;;;;;12.68;100.00;100971.63;5164795;28;19921;-77
2023/05/10 03:30:25;;;;;;;;;;;;;;;12.69;100.00;100964.38;5165871;28;20367;-78
2023/05/10 03:32:56;;;;;;;;;;;;;;;12.67;100.00;100978.03;5165668;28;19918;-77
2023/05/10 03:35:27;;;;;;;;;;;;;;;12.66;100.00;100976.34;5164530;28;19921;-77
2023/05/10 03:37:57;;;;;;;;;;;;;;;12.64;100.00;100970.28;5152169;28;20005;-78
2023/05/10 03:40:31;;;;;;;;;;;;;;;12.69;100.00;100970.59;5163801;28;19918;-77
2023/05/10 03:43:01;;;;;;;;;;;;;;;12.72;100.00;100973.97;5165550;28;19909;-77
2023/05/10 03:45:32;;;;;;;;;;;;;;;12.69;100.00;100975.16;5165511;28;19984;-77
2023/05/10 03:48:02;;;;;;;;;;;;;;;12.68;100.00;100976.16;5165461;28;19917;-77
2023/05/10 03:50:33;;;;;;;;;;;;;;;12.70;100.00;100975.00;5165356;28;20415;-78
2023/05/10 03:53:03;;;;;;;;;;;;;;;12.67;100.00;100982.56;5165377;28;20319;-78
2023/05/10 03:55:35;;;;;;;;;;;;;;;12.69;100.00;100984.06;5165500;28;19917;-77
2023/05/10 03:58:06;;;;;;;;;;;;;;;12.71;100.00;100986.59;5164690;28;20286;-78
2023/05/10 04:00:36;;;;;;;;;;;;;;;12.72;100.00;100990.13;5165294;28;19915;-77
2023/05/10 04:03:07;;;;;;;;;;;;;;;12.67;100.00;100993.34;5163815;28;19921;-77
2023/05/10 04:05:37;;;;;;;;;;;;;;;12.66;100.00;101000.59;5165675;28;19992;-79
2023/05/10 04:08:08;;;;;;;;;;;;;;;12.69;100.00;100989.44;5164448;28;19920;-77
2023/05/10 04:10:38;;;;;;;;;;;;;;;12.70;100.00;100992.97;5164589;28;19953;-77
2023/05/10 04:13:09;;;;;;;;;;;;;;;12.67;100.00;100996.88;5164922;28;20362;-77
2023/05/10 04:15:40;;;;;;;;;;;;;;;12.68;100.00;101005.78;5165024;28;20022;-79
2023/05/10 04:18:10;;;;;;;;;;;;;;;12.65;100.00;101000.72;5162905;28;20287;-77
2023/05/10 04:20:40;;;;;;;;;;;;;;;12.64;100.00;101007.13;5164630;28;20407;-77
2023/05/10 04:23:11;;;;;;;;;;;;;;;12.64;100.00;101010.66;5164797;28;19921;-77
2023/05/10 04:25:41;;;;;;;;;;;;;;;12.68;100.00;101001.22;5165113;28;19929;-77
2023/05/10 04:28:11;;;;;;;;;;;;;;;12.69;100.00;101002.06;5162697;28;19913;-77
2023/05/10 04:30:42;;;;;;;;;;;;;;;12.68;100.00;101008.47;5164378;28;20386;-79
2023/05/10 04:33:12;;;;;;;;;;;;;;;12.69;100.00;101004.75;5167480;28;19918;-77
2023/05/10 04:35:44;;;;;;;;;;;;;;;12.67;100.00;101006.81;5164330;28;19957;-78
2023/05/10 04:38:14;;;;;;;;;;;;;;;12.69;100.00;101008.28;5163925;28;19956;-77
2023/05/10 04:40:45;;;;;;;;;;;;;;;12.63;100.00;101010.84;5163599;28;20341;-76
2023/05/10 04:43:15;;;;;;;;;;;;;;;12.62;100.00;101011.88;5164565;28;19906;-77
2023/05/10 04:45:46;;;;;;;;;;;;;;;12.61;100.00;101012.91;5164217;28;19972;-77
2023/05/10 04:48:16;;;;;;;;;;;;;;;12.61;100.00;101010.19;5163046;28;19913;-77
2023/05/10 04:50:47;;;;;;;;;;;;;;;12.64;100.00;101007.97;5164090;28;19918;-78
2023/05/10 04:53:17;;;;;;;;;;;;;;;12.65;100.00;101015.06;5162734;28;19921;-77
2023/05/10 04:55:47;;;;;;;;;;;;;;;12.66;100.00;101011.34;5164251;28;20004;-77
2023/05/10 04:58:18;;;;;;;;;;;;;;;12.67;100.00;101013.03;5163921;28;19960;-77
2023/05/10 05:00:48;;;;;;;;;;;;;;;12.70;100.00;101018.06;5163709;28;19913;-76
2023/05/10 05:03:19;;;;;;;;;;;;;;;12.72;100.00;101015.19;5163994;28;19913;-76
2023/05/10 05:05:49;;;;;;;;;;;;;;;12.76;100.00;101019.22;5163582;28;19917;-77
2023/05/10 05:08:19;;;;;;;;;;;;;;;12.80;100.00;101019.66;5163513;28;19920;-76
2023/05/10 05:10:50;;;;;;;;;;;;;;;12.83;100.00;101024.72;5163192;28;20272;-76
2023/05/10 05:13:20;;;;;;;;;;;;;;;12.83;100.00;101022.03;5162742;28;19914;-77
2023/05/10 05:15:51;;;;;;;;;;;;;;;12.83;100.00;101012.09;5164038;28;19964;-76
2023/05/10 05:18:21;;;;;;;;;;;;;;;12.84;100.00;101005.69;5162504;28;19917;-77
2023/05/10 05:20:51;;;;;;;;;;;;;;;12.83;100.00;101017.47;5163230;28;20008;-77
2023/05/10 05:23:24;;;;;;;;;;;;;;;12.87;100.00;101010.72;5146329;28;19913;-76
2023/05/10 05:25:55;;;;;;;;;;;;;;;12.87;100.00;101012.59;5163765;28;19920;-76
2023/05/10 05:28:25;;;;;;;;;;;;;;;12.87;100.00;101018.81;5161794;28;19914;-77
2023/05/10 05:30:55;;;;;;;;;;;;;;;12.95;100.00;101020.59;5163569;28;19925;-77
2023/05/10 05:33:26;;;;;;;;;;;;;;;12.98;100.00;101027.50;5162306;28;20434;-75
2023/05/10 05:35:56;;;;;;;;;;;;;;;13.00;100.00;101026.28;5163365;28;20350;-76
2023/05/10 05:38:26;;;;;;;;;;;;;;;13.00;100.00;101028.97;5162641;28;19914;-75
2023/05/10 05:40:57;;;;;;;;;;;;;;;13.01;100.00;101033.38;5162747;28;19918;-76
2023/05/10 05:43:28;;;;;;;;;;;;;;;13.09;100.00;101029.78;5161613;28;20411;-78
2023/05/10 05:45:58;;;;;;;;;;;;;;;13.14;100.00;101038.16;5163215;28;20215;-76
2023/05/10 05:48:29;;;;;;;;;;;;;;;13.21;100.00;101036.44;5162403;28;19917;-76
2023/05/10 05:51:00;;;;;;;;;;;;;;;13.23;100.00;101041.69;5163370;28;19917;-76
2023/05/10 05:53:30;;;;;;;;;;;;;;;13.28;100.00;101033.91;5162710;28;19914;-76
2023/05/10 05:56:00;;;;;;;;;;;;;;;13.30;100.00;101037.25;5163454;28;19914;-76
2023/05/10 05:58:31;;;;;;;;;;;;;;;13.35;100.00;101045.63;5162560;28;19914;-75
2023/05/10 06:01:01;;;;;;;;;;;;;;;13.42;100.00;101043.91;5162525;28;19920;-76
2023/05/10 06:03:32;;;;;;;;;;;;;;;13.45;100.00;101040.81;5163130;28;19925;-75
2023/05/10 06:06:02;;;;;;;;;;;;;;;13.49;100.00;101044.84;5164427;28;19953;-77
2023/05/10 06:08:33;;;;;;;;;;;;;;;13.51;100.00;101037.44;5163048;28;19918;-75
2023/05/10 06:11:04;;;;;;;;;;;;;;;13.54;100.00;101055.91;5162715;28;19922;-77
2023/05/10 06:13:35;;;;;;;;;;;;;;;13.57;100.00;101054.75;5163220;28;20012;-76
2023/05/10 06:16:05;;;;;;;;;;;;;;;13.57;100.00;101058.28;5163442;28;20001;-76
2023/05/10 06:18:35;;;;;;;;;;;;;;;13.60;100.00;101057.88;5161803;28;20028;-77
2023/05/10 06:21:06;;;;;;;;;;;;;;;13.58;100.00;101053.72;5154699;28;19976;-76
2023/05/10 06:23:36;;;;;;;;;;;;;;;13.59;100.00;101067.00;5154297;28;20013;-76
2023/05/10 06:26:07;;;;;;;;;;;;;;;13.59;100.00;101063.47;5159527;28;19918;-77
2023/05/10 06:28:38;;;;;;;;;;;;;;;13.58;100.00;101065.31;5158572;28;20032;-77
2023/05/10 06:31:11;;;;;;;;;;;;;;;13.58;100.00;101070.72;5156712;28;20414;-78
2023/05/10 06:33:41;;;;;;;;;;;;;;;13.52;100.00;101065.22;5159724;28;19918;-77
2023/05/10 06:36:13;;;;;;;;;;;;;;;13.46;100.00;101072.19;5157789;28;19984;-76
2023/05/10 06:38:43;;;;;;;;;;;;;;;13.51;100.00;101082.41;5156640;28;19924;-78
2023/05/10 06:41:14;;;;;;;;;;;;;;;13.51;100.00;101068.94;5157203;28;19913;-78
2023/05/10 06:43:44;;;;;;;;;;;;;;;13.54;100.00;101085.56;5157449;28;19918;-77
2023/05/10 06:46:15;;;;;;;;;;;;;;;13.60;100.00;101089.41;5159584;28;20004;-77
2023/05/10 06:48:46;;;;;;;;;;;;;;;13.63;100.00;101092.59;5157905;28;19965;-78
2023/05/10 06:51:17;;;;;;;;;;;;;;;13.58;100.00;101094.97;5159804;28;19922;-77
2023/05/10 06:53:47;;;;;;;;;;;;;;;13.52;100.00;101095.72;5159063;28;19928;-79
2023/05/10 06:56:21;;;;;;;;;;;;;;;13.51;100.00;101093.19;5159453;28;19918;-77
2023/05/10 06:58:51;;;;;;;;;;;;;;;13.54;100.00;101101.75;5157474;28;19918;-78
2023/05/10 07:01:22;;;;;;;;;;;;;;;13.49;100.00;101096.06;5141366;28;19921;-78
2023/05/10 07:03:52;;;;;;;;;;;;;;;13.40;100.00;101094.44;5146660;28;19914;-77
2023/05/10 07:06:23;;;;;;;;;;;;;;;13.40;100.00;101100.69;5157277;28;20357;-79
2023/05/10 07:08:53;;;;;;;;;;;;;;;13.35;100.00;101104.91;5159042;28;19917;-77
2023/05/10 07:11:23;;;;;;;;;;;;;;;13.42;100.00;101108.56;5157098;28;20021;-77
2023/05/10 07:13:54;;;;;;;;;;;;;;;13.45;100.00;101113.59;5162855;28;20302;-78
2023/05/10 07:16:24;;;;;;;;;;;;;;;13.50;100.00;101107.66;5162278;28;19964;-77
2023/05/10 07:18:55;;;;;;;;;;;;;;;13.54;100.00;101107.13;5161330;28;20331;-77
2023/05/10 07:21:28;;;;;;;;;;;;;;;13.59;100.00;101122.78;5161918;28;20307;-78
2023/05/10 07:23:59;;;;;;;;;;;;;;;13.62;100.00;101114.34;5163176;28;20275;-79
2023/05/10 07:26:29;;;;;;;;;;;;;;;13.66;100.00;101111.09;5161534;28;20710;-78
2023/05/10 07:29:00;;;;;;;;;;;;;;;13.67;100.00;101115.47;5162417;28;20354;-78
2023/05/10 07:31:30;;;;;;;;;;;;;;;13.76;100.00;101113.56;5160400;28;20462;-78
2023/05/10 07:34:00;;;;;;;;;;;;;;;13.78;100.00;101119.59;5162411;28;19914;-79
2023/05/10 07:36:31;;;;;;;;;;;;;;;13.77;100.00;101128.72;5151298;28;20036;-79
2023/05/10 07:39:01;;;;;;;;;;;;;;;13.83;100.00;101124.47;5158760;28;20299;-78
2023/05/10 07:41:32;;;;;;;;;;;;;;;13.89;100.00;101126.41;5161728;28;20046;-78
2023/05/10 07:44:03;;;;;;;;;;;;;;;13.91;100.00;101132.50;5162009;28;19913;-78
2023/05/10 07:46:34;;;;;;;;;;;;;;;13.92;100.00;101139.56;5161698;28;19918;-77
2023/05/10 07:49:05;;;;;;;;;;;;;;;13.97;100.00;101134.47;5162557;28;20299;-77
2023/05/10 07:51:35;;;;;;;;;;;;;;;13.90;100.00;101137.00;5160178;28;19922;-80
2023/05/10 07:54:06;;;;;;;;;;;;;;;13.85;100.00;101138.59;5162012;28;20287;-78
2023/05/10 07:56:36;;;;;;;;;;;;;;;13.82;100.00;101136.25;5160831;28;19924;-78
2023/05/10 07:59:06;;;;;;;;;;;;;;;13.83;100.00;101148.72;5161969;28;20064;-78
2023/05/10 08:01:37;;;;;;;;;;;;;;;13.78;100.00;101145.72;5160844;28;19921;-77
2023/05/10 08:04:08;;;;;;;;;;;;;;;13.87;100.00;101139.25;5161229;28;20052;-80
2023/05/10 08:06:39;;;;;;;;;;;;;;;13.85;100.00;101155.59;5159680;28;19921;-77
2023/05/10 08:09:10;;;;;;;;;;;;;;;13.95;100.00;101139.19;5160701;28;19929;-77
2023/05/10 08:11:41;;;;;;;;;;;;;;;14.12;100.00;101148.81;5160570;28;19956;-78
2023/05/10 08:14:11;;;;;;;;;;;;;;;14.28;100.00;101147.84;5161844;28;20394;-79
2023/05/10 08:16:41;;;;;;;;;;;;;;;14.41;100.00;101150.75;5161453;28;19924;-78
2023/05/10 08:19:12;;;;;;;;;;;;;;;14.56;100.00;101152.63;5161372;28;19921;-78
2023/05/10 08:21:42;;;;;;;;;;;;;;;14.72;100.00;101152.47;5164002;28;19918;-78
2023/05/10 08:24:13;;;;;;;;;;;;;;;14.87;100.00;101152.47;5161192;28;19925;-77
2023/05/10 08:26:43;;;;;;;;;;;;;;;14.87;100.00;101152.47;5159876;28;20315;-79
2023/05/10 08:29:14;;;;;;;;;;;;;;;14.74;100.00;101153.97;5161346;28;20324;-77
2023/05/10 08:31:45;;;;;;;;;;;;;;;14.79;100.00;101156.09;5160947;28;20140;-78
2023/05/10 08:34:15;;;;;;;;;;;;;;;14.90;100.00;101158.31;5159986;28;19917;-78
2023/05/10 08:36:46;;;;;;;;;;;;;;;15.13;100.00;101155.53;5149330;28;19914;-78
2023/05/10 08:39:16;;;;;;;;;;;;;;;15.23;100.00;101157.94;5159518;28;19918;-77
2023/05/10 08:41:46;;;;;;;;;;;;;;;15.23;100.00;101168.75;5160510;28;19913;-77
2023/05/10 08:44:18;;;;;;;;;;;;;;;15.10;100.00;101173.97;5161162;28;19917;-78
2023/05/10 08:46:52;;;;;;;;;;;;;;;14.85;100.00;101165.31;5160100;28;20413;-77
2023/05/10 08:49:24;;;;;;;;;;;;;;;14.53;100.00;101158.44;5159724;28;20150;-79
2023/05/10 08:51:54;;;;;;;;;;;;;;;14.63;100.00;101170.63;5159306;28;20295;-77
2023/05/10 08:54:25;;;;;;;;;;;;;;;14.55;100.00;101170.69;5161424;28;19914;-78
2023/05/10 08:56:55;;;;;;;;;;;;;;;14.68;100.00;101176.31;5159121;28;19953;-77
2023/05/10 08:59:26;;;;;;;;;;;;;;;14.82;100.00;101176.50;5159661;28;20276;-77
2023/05/10 09:01:59;;;;;;;;;;;;;;;14.88;100.00;101176.59;5139882;28;19921;-78
2023/05/10 09:04:29;;;;;;;;;;;;;;;14.84;100.00;101185.25;5154332;28;20292;-77
2023/05/10 09:07:01;;;;;;;;;;;;;;;14.75;100.00;101182.63;5158529;28;21165;-77
2023/05/10 09:09:32;;;;;;;;;;;;;;;14.71;100.00;101184.06;5157854;28;19924;-77
2023/05/10 09:12:02;;;;;;;;;;;;;;;14.69;100.00;101185.25;5160834;28;20050;-77
2023/05/10 09:14:34;;;;;;;;;;;;;;;14.50;100.00;101192.00;5144054;28;19914;-77
2023/05/10 09:17:05;;;;;;;;;;;;;;;14.24;100.00;101195.09;5159220;28;19952;-77
2023/05/10 09:19:35;;;;;;;;;;;;;;;14.15;100.00;101188.91;5158881;28;20023;-77
2023/05/10 09:22:06;;;;;;;;;;;;;;;14.20;100.00;101204.56;5160286;28;20402;-77
2023/05/10 09:24:42;;;;;;;;;;;;;;;13.77;100.00;101212.31;5159456;28;19989;-77
2023/05/10 09:27:12;;;;;;;;;;;;;;;13.85;100.00;101208.69;5160661;28;19963;-77
2023/05/10 09:29:43;;;;;;;;;;;;;;;13.80;100.00;101216.50;5160186;28;19917;-77
2023/05/10 09:32:14;;;;;;;;;;;;;;;13.90;100.00;101215.22;5158559;28;20303;-77
2023/05/10 09:34:45;;;;;;;;;;;;;;;13.76;100.00;101220.59;5159531;28;19920;-77
2023/05/10 09:37:16;;;;;;;;;;;;;;;13.93;100.00;101224.84;5146788;28;19918;-77
2023/05/10 09:39:46;;;;;;;;;;;;;;;14.00;100.00;101225.78;5160695;28;19914;-77
2023/05/10 09:42:18;;;;;;;;;;;;;;;14.36;100.00;101220.63;5159459;28;19973;-77
2023/05/10 09:44:48;;;;;;;;;;;;;;;14.73;100.00;101217.09;5160687;28;19914;-77
2023/05/10 09:47:19;;;;;;;;;;;;;;;15.21;100.00;101225.69;5138743;28;19918;-77
2023/05/10 09:49:50;;;;;;;;;;;;;;;14.97;100.00;101224.13;5151523;28;19914;-77
2023/05/10 09:52:21;;;;;;;;;;;;;;;15.33;100.00;101228.75;5159243;28;20398;-77
2023/05/10 09:54:53;;;;;;;;;;;;;;;15.10;100.00;101223.44;5159425;28;19914;-77
2023/05/10 09:57:24;;;;;;;;;;;;;;;15.09;100.00;101224.47;5159549;28;19921;-77
2023/05/10 09:59:54;;;;;;;;;;;;;;;15.00;100.00;101234.53;5159038;28;19924;-77
2023/05/10 10:02:28;;;;;;;;;;;;;;;14.86;100.00;101231.81;5159584;28;20371;-77
2023/05/10 10:05:00;;;;;;;;;;;;;;;14.83;100.00;101230.34;5159925;28;19914;-77
2023/05/10 10:07:31;;;;;;;;;;;;;;;14.74;100.00;101223.34;5160392;28;19914;-77
2023/05/10 10:10:02;;;;;;;;;;;;;;;14.80;100.00;101228.00;5158292;28;20636;-77
2023/05/10 10:12:33;;;;;;;;;;;;;;;14.61;100.00;101236.63;5159442;28;19918;-77
2023/05/10 10:15:04;;;;;;;;;;;;;;;14.57;100.00;101236.16;5143323;28;19914;-77
2023/05/10 10:17:36;;;;;;;;;;;;;;;14.58;100.00;101235.13;5158660;28;19918;-77
2023/05/10 10:20:07;;;;;;;;;;;;;;;14.67;100.00;101239.44;5159566;28;20341;-77
2023/05/10 10:22:38;;;;;;;;;;;;;;;14.86;100.00;101242.63;5159207;28;19917;-77
2023/05/10 10:25:10;;;;;;;;;;;;;;;14.63;100.00;101240.00;5159238;28;19914;-77
2023/05/10 10:27:51;;;;;;;;;;;;;;;14.65;100.00;101244.19;5158559;28;19914;-79
2023/05/10 10:30:37;;;;;;;;;;;;;;;14.58;100.00;101251.34;5160145;28;19914;-76
2023/05/10 10:33:26;;;;;;;;;;;;;;;14.46;100.00;101247.38;5159268;28;20288;-78
2023/05/10 10:35:58;;;;;;;;;;;;;;;14.59;100.00;101244.91;5159669;28;19914;-76
2023/05/10 10:38:47;;;;;;;;;;;;;;;14.53;100.00;101245.66;5160081;28;19921;-77
2023/05/10 10:41:36;;;;;;;;;;;;;;;14.50;100.00;101246.84;5157153;28;19972;-77
2023/05/10 10:44:26;;;;;;;;;;;;;;;14.47;100.00;101240.97;5158340;28;19913;-77
2023/05/10 10:47:18;;;;;;;;;;;;;;;14.63;100.00;101253.50;5159772;28;19968;-77
2023/05/10 10:49:51;;;;;;;;;;;;;;;14.49;100.00;101250.56;5163458;28;19975;-77
2023/05/10 10:52:22;;;;;;;;;;;;;;;14.58;100.00;101248.63;5161880;28;19922;-77
2023/05/10 10:54:57;;;;;;;;;;;;;;;14.67;100.00;101249.41;5162047;28;19914;-77
2023/05/10 10:57:30;;;;;;;;;;;;;;;14.84;100.00;101250.91;5163192;28;20380;-77
2023/05/10 11:00:17;;;;;;;;;;;;;;;14.68;100.00;101246.53;5161320;28;19917;-77
2023/05/10 11:02:49;;;;;;;;;;;;;;;14.75;100.00;101242.06;5161097;28;19914;-76
2023/05/10 11:05:32;;;;;;;;;;;;;;;14.96;100.00;101243.19;5163650;28;19942;-77
2023/05/10 11:08:14;;;;;;;;;;;;;;;14.85;100.00;101241.78;5162227;28;20303;-77
2023/05/10 11:11:03;;;;;;;;;;;;;;;14.72;100.00;101241.59;5161234;28;19926;-77
2023/05/10 11:13:52;;;;;;;;;;;;;;;14.95;100.00;101241.53;5150019;28;19917;-77
2023/05/10 11:16:23;;;;;;;;;;;;;;;14.99;100.00;101242.81;5161503;28;20331;-76
2023/05/10 11:18:56;;;;;;;;;;;;;;;14.94;100.00;101242.53;5162490;28;19927;-77
2023/05/10 11:21:27;;;;;;;;;;;;;;;15.26;100.00;101234.09;5161598;28;19917;-77
2023/05/10 11:23:59;;;;;;;;;;;;;;;15.41;100.00;101242.19;5162858;28;20432;-77
2023/05/10 11:26:31;;;;;;;;;;;;;;;15.47;100.00;101246.00;5161981;28;20299;-77
2023/05/10 11:29:04;;;;;;;;;;;;;;;15.53;100.00;101239.81;5160916;28;19964;-77
2023/05/10 11:31:34;;;;;;;;;;;;;;;15.71;100.00;101243.00;5160988;28;19983;-77
2023/05/10 11:34:05;;;;;;;;;;;;;;;15.67;100.00;101252.50;5162144;28;19917;-77
2023/05/10 11:36:36;;;;;;;;;;;;;;;15.57;100.00;101251.94;5161626;28;19918;-77
2023/05/10 11:39:06;;;;;;;;;;;;;;;15.21;100.00;101244.63;5162275;28;19918;-77
2023/05/10 11:41:36;;;;;;;;;;;;;;;15.10;100.00;101246.94;5159857;28;19948;-77
2023/05/10 11:44:08;;;;;;;;;;;;;;;15.41;100.00;101255.69;5160429;28;19914;-77
2023/05/10 11:46:39;;;;;;;;;;;;;;;15.71;100.00;101259.22;5161730;28;20338;-77
2023/05/10 11:49:09;;;;;;;;;;;;;;;15.76;100.00;101254.09;5162674;28;19920;-77
2023/05/10 11:51:42;;;;;;;;;;;;;;;15.53;100.00;101256.03;5160824;28;19968;-77
2023/05/10 11:54:12;;;;;;;;;;;;;;;15.80;100.00;101257.22;5165444;28;19917;-77
2023/05/10 11:56:42;;;;;;;;;;;;;;;16.08;100.00;101248.38;5166636;28;19925;-77
2023/05/10 11:59:14;;;;;;;;;;;;;;;16.18;100.00;101252.44;5163565;28;19921;-77
2023/05/10 12:01:44;;;;;;;;;;;;;;;16.28;100.00;101250.25;5162508;28;20446;-78
2023/05/10 12:04:15;;;;;;;;;;;;;;;16.03;100.00;101248.97;5164516;28;19910;-77
2023/05/10 12:06:46;;;;;;;;;;;;;;;16.03;100.00;101246.25;5162874;28;20001;-77
2023/05/10 12:09:16;;;;;;;;;;;;;;;15.85;100.00;101240.44;5164011;28;20153;-77
2023/05/10 12:11:47;;;;;;;;;;;;;;;16.11;100.00;101239.84;5162265;28;20386;-78
2023/05/10 12:14:19;;;;;;;;;;;;;;;16.02;100.00;101237.28;5164803;28;20068;-78
2023/05/10 12:16:49;;;;;;;;;;;;;;;16.26;100.00;101243.34;5161101;28;19941;-77
2023/05/10 12:19:21;;;;;;;;;;;;;;;16.20;100.00;101244.94;5164482;28;19964;-77
2023/05/10 12:21:51;;;;;;;;;;;;;;;16.47;100.00;101235.22;5163534;28;20034;-78
2023/05/10 12:24:21;;;;;;;;;;;;;;;16.50;100.00;101239.41;5163660;28;19917;-77
2023/05/10 12:26:52;;;;;;;;;;;;;;;16.88;100.00;101239.94;5163422;28;20437;-76
2023/05/10 12:29:22;;;;;;;;;;;;;;;17.09;100.00;101241.72;5163890;28;20323;-77
2023/05/10 12:31:54;;;;;;;;;;;;;;;17.26;100.00;101247.66;5161279;28;19952;-78
2023/05/10 12:34:25;;;;;;;;;;;;;;;17.22;100.00;101235.53;5146478;28;19965;-77
2023/05/10 12:36:56;;;;;;;;;;;;;;;17.14;100.00;101239.25;5150619;28;19914;-77
2023/05/10 12:39:38;;;;;;;;;;;;;;;17.40;100.00;101243.16;5164037;28;19914;-77
2023/05/10 12:42:08;;;;;;;;;;;;;;;17.34;100.00;101236.66;5162752;28;19924;-78
2023/05/10 12:44:39;;;;;;;;;;;;;;;17.69;100.00;101244.72;5163698;28;19913;-77
2023/05/10 12:47:10;;;;;;;;;;;;;;;18.05;100.00;101236.28;5163249;28;19920;-77
2023/05/10 12:49:40;;;;;;;;;;;;;;;18.20;100.00;101238.81;5163567;28;20299;-76
2023/05/10 12:52:11;;;;;;;;;;;;;;;18.58;100.00;101236.34;5161594;28;19925;-77